Terminal Aerodrome Forecast
Issued by NWS

Home | Current Version | Previous Version | Text Only | Print | Product List | Glossary Off
Versions: 1 2 3 4 5 6 7 8 9 10 11 12 13 14 15 16 17

000
FTUS42 KMHX 251740
TAFISO
TAF
KISO 251740Z 2518/2618 23005KT P6SM VCSH SCT015 OVC035
      TEMPO 2518/2520 5SM -RA BKN008 OVC015
     FM252000 20005KT 5SM -RA BR SCT007 OVC020
     FM252300 VRB03KT 4SM -RA BR BKN007 OVC015
     FM260400 03004KT 3SM BR VCSH OVC004
     FM261500 02007KT P6SM VCSH OVC007
     FM261700 02008KT P6SM VCSH OVC015
      AMD LTD TO CLD VIS AND WIND=

USA.gov is the U.S. government's official web portal to all federal, state and local government web resources and services.